New Burlingtn, Indiana
Current Conditions -  °F | °C
As of 4:39 PM on Friday 31 Oct 2014 (Local Time) from KMIE Reporting Station
Overcast Overcast  
Wind Chill: 32°   Ceiling: 1400
Heat Index: 40°   Visibility: 10mi
Dew Point: 37°   Wind: 14mph
Humidity: 89%   Direction: 320°NW
Pressure: 29.93"   Gusts: NA
Location:  40.1286°N, 85.3767°W
Report Text: KMIE 312039Z 32012KT 10SM BKN014 OVC018 04/03 A2993 RMK AO2 T00440028
Loading
Personal Weather Stations






























Interactive Weather Map
Tropical Storm Tracking
New forecast layout! Learn more

10-Day Weather Forecast

Advertisements
Track Severe Weather on mobile